Time;durP1;ratioP1;P1;durP2;ratioP2;P2;SDS_P1;SDS_P2;PMS_P1;PMS_P2;Temp;Humidity;BMP_temperature;BMP_pressure;BME280_temperature;BME280_humidity;BME280_pressure;Samples;Min_cycle;Max_cycle;Signal;HPM_P1;HPM_P2
2023/06/15 00:01:48;;;;;;;1.38;1.27;;;17.70;99.90;;;;;;5074943;28;20203;-60
2023/06/15 00:04:15;;;;;;;1.20;1.20;;;17.70;99.90;;;;;;5077957;28;20239;-59
2023/06/15 00:06:43;;;;;;;1.25;1.20;;;17.70;99.90;;;;;;5080852;28;20248;-59
2023/06/15 00:09:10;;;;;;;1.30;1.20;;;17.70;99.90;;;;;;5074585;28;20203;-59
2023/06/15 00:11:37;;;;;;;1.27;1.27;;;17.60;99.90;;;;;;5073665;28;20207;-59
2023/06/15 00:14:03;;;;;;;1.00;1.00;;;17.50;99.90;;;;;;5073119;28;20227;-57
2023/06/15 00:16:31;;;;;;;1.17;1.17;;;17.50;99.90;;;;;;5073219;28;20298;-58
2023/06/15 00:18:58;;;;;;;1.10;1.10;;;17.50;99.90;;;;;;5073343;28;20575;-59
2023/06/15 00:21:26;;;;;;;2.08;1.13;;;17.50;99.90;;;;;;5073427;28;20207;-58
2023/06/15 00:23:54;;;;;;;1.10;1.10;;;17.50;99.90;;;;;;5072872;28;20231;-58
2023/06/15 00:26:21;;;;;;;1.10;1.10;;;17.40;99.90;;;;;;5072749;28;20301;-58
2023/06/15 00:29:18;;;;;;;1.10;1.10;;;17.30;99.90;;;;;;5073148;28;20234;-61
2023/06/15 00:31:45;;;;;;;1.10;1.10;;;17.30;99.90;;;;;;5072996;28;20203;-60
2023/06/15 00:34:12;;;;;;;1.25;1.20;;;17.30;99.90;;;;;;5072675;28;20671;-58
2023/06/15 00:36:39;;;;;;;1.10;1.10;;;17.40;99.90;;;;;;5072586;28;20238;-59
2023/06/15 00:39:07;;;;;;;1.10;1.10;;;17.30;99.90;;;;;;5072830;28;20213;-59
2023/06/15 00:41:41;;;;;;;1.55;1.45;;;17.20;99.90;;;;;;5106499;22;20227;-61
2023/06/15 00:44:08;;;;;;;1.30;1.30;;;17.20;99.90;;;;;;5079257;28;20241;-62
2023/06/15 00:46:36;;;;;;;1.02;0.98;;;17.20;99.90;;;;;;5071322;28;20566;-63
2023/06/15 00:49:03;;;;;;;1.48;1.30;;;17.20;99.90;;;;;;5071166;28;20195;-62
2023/06/15 00:51:30;;;;;;;1.20;1.20;;;17.20;99.90;;;;;;5070486;28;20593;-61
2023/06/15 00:53:58;;;;;;;1.05;1.00;;;17.10;99.90;;;;;;5071053;28;20203;-62
2023/06/15 00:56:29;;;;;;;1.20;1.10;;;17.20;99.90;;;;;;5071072;28;20294;-63
2023/06/15 00:58:56;;;;;;;1.30;1.20;;;16.90;99.90;;;;;;5071963;28;20715;-61
2023/06/15 01:01:24;;;;;;;1.20;1.20;;;16.90;99.90;;;;;;5073611;28;20318;-62
2023/06/15 01:03:51;;;;;;;1.08;1.08;;;16.80;99.90;;;;;;5073604;28;20203;-62
2023/06/15 01:06:19;;;;;;;1.25;1.25;;;16.80;99.90;;;;;;5072934;28;20213;-62
2023/06/15 01:08:52;;;;;;;1.00;1.00;;;16.80;99.90;;;;;;5076056;28;20203;-62
2023/06/15 01:11:19;;;;;;;1.25;1.15;;;16.60;99.90;;;;;;5073140;28;20329;-62
2023/06/15 01:13:49;;;;;;;0.90;0.90;;;16.70;99.90;;;;;;5032823;28;20215;-63
2023/06/15 01:16:23;;;;;;;1.20;1.20;;;16.70;99.90;;;;;;5036317;28;20223;-61
2023/06/15 01:18:56;;;;;;;1.20;1.20;;;16.60;99.90;;;;;;5035415;28;20219;-62
2023/06/15 01:21:26;;;;;;;1.30;1.20;;;16.50;99.90;;;;;;5032351;28;20718;-63
2023/06/15 01:24:03;;;;;;;1.30;1.20;;;16.50;99.90;;;;;;5033243;28;20196;-62
2023/06/15 01:26:33;;;;;;;1.13;1.13;;;16.50;99.90;;;;;;5033065;28;20216;-62
2023/06/15 01:29:00;;;;;;;1.30;1.20;;;16.40;99.90;;;;;;5032307;28;20236;-62
2023/06/15 01:31:28;;;;;;;1.27;1.20;;;16.30;99.90;;;;;;5033893;28;20231;-62
2023/06/15 01:33:55;;;;;;;1.35;1.33;;;16.30;99.90;;;;;;5034514;28;20212;-62
2023/06/15 01:36:22;;;;;;;1.13;1.13;;;16.30;99.90;;;;;;5034545;28;20204;-62
2023/06/15 01:38:55;;;;;;;1.10;1.10;;;16.30;99.90;;;;;;5052152;28;20228;-62
2023/06/15 01:41:24;;;;;;;1.08;1.05;;;16.30;99.90;;;;;;5053299;28;20246;-63
2023/06/15 01:43:53;;;;;;;1.25;1.23;;;16.30;99.90;;;;;;5052519;28;20283;-63
2023/06/15 01:46:21;;;;;;;1.50;1.10;;;16.20;99.90;;;;;;5052456;28;20322;-63
2023/06/15 01:48:48;;;;;;;1.00;1.00;;;16.10;99.90;;;;;;5052571;28;20206;-62
2023/06/15 01:51:17;;;;;;;1.20;1.20;;;16.10;99.90;;;;;;5052823;28;20226;-61
2023/06/15 01:53:44;;;;;;;1.50;1.17;;;16.00;99.90;;;;;;5052995;28;20287;-61
2023/06/15 01:56:11;;;;;;;1.13;1.13;;;15.90;99.90;;;;;;5052648;28;20210;-61
2023/06/15 01:58:38;;;;;;;1.20;1.10;;;15.90;99.90;;;;;;5052286;28;20310;-63
2023/06/15 02:01:06;;;;;;;0.90;0.90;;;15.90;99.90;;;;;;5051901;28;20315;-61
2023/06/15 02:03:33;;;;;;;1.08;1.08;;;15.90;99.90;;;;;;5052415;28;20235;-62
2023/06/15 02:06:00;;;;;;;1.20;1.20;;;15.90;99.90;;;;;;5052919;28;20207;-62
2023/06/15 02:08:27;;;;;;;1.10;1.10;;;15.80;99.90;;;;;;5056082;28;20937;-62
2023/06/15 02:10:54;;;;;;;1.10;1.10;;;15.80;99.90;;;;;;5059960;28;20211;-63
2023/06/15 02:13:20;;;;;;;1.38;1.15;;;15.80;99.90;;;;;;5054816;28;20290;-62
2023/06/15 02:15:47;;;;;;;1.42;1.35;;;15.80;99.90;;;;;;5053303;28;20207;-62
2023/06/15 02:18:16;;;;;;;1.10;1.10;;;15.80;99.90;;;;;;5054437;28;20234;-62
2023/06/15 02:20:43;;;;;;;1.10;1.10;;;15.80;99.90;;;;;;5056874;28;20204;-62
2023/06/15 02:23:10;;;;;;;1.20;1.10;;;15.80;99.90;;;;;;5057795;28;20295;-62
2023/06/15 02:25:37;;;;;;;1.20;1.20;;;15.80;99.90;;;;;;5057581;28;20218;-63
2023/06/15 02:28:04;;;;;;;1.25;1.17;;;15.70;99.90;;;;;;5057527;28;20566;-62
2023/06/15 02:30:32;;;;;;;1.25;1.25;;;15.80;99.90;;;;;;5056351;28;20246;-62
2023/06/15 02:33:00;;;;;;;1.10;1.10;;;15.70;99.90;;;;;;5057037;28;20284;-61
2023/06/15 02:35:29;;;;;;;1.30;1.20;;;15.80;99.90;;;;;;5056015;28;20235;-62
2023/06/15 02:37:56;;;;;;;1.17;1.17;;;15.80;99.90;;;;;;5054923;28;20585;-62
2023/06/15 02:40:23;;;;;;;1.38;1.27;;;15.80;99.90;;;;;;5056094;28;20237;-63
2023/06/15 02:42:50;;;;;;;1.30;1.20;;;15.80;99.90;;;;;;5055139;28;20235;-62
2023/06/15 02:45:17;;;;;;;1.10;1.10;;;15.80;99.90;;;;;;5056076;28;20204;-62
2023/06/15 02:47:45;;;;;;;1.20;1.20;;;15.80;99.90;;;;;;5057004;28;20199;-63
2023/06/15 02:50:12;;;;;;;1.10;1.10;;;15.90;99.90;;;;;;5055437;28;20239;-62
2023/06/15 02:52:40;;;;;;;1.20;1.20;;;15.90;99.90;;;;;;5055117;28;20306;-62
2023/06/15 02:55:08;;;;;;;1.45;1.30;;;15.90;99.90;;;;;;5055508;28;20211;-61
2023/06/15 02:57:36;;;;;;;1.20;1.15;;;15.90;99.90;;;;;;5055277;28;20243;-62
2023/06/15 03:00:03;;;;;;;1.10;1.10;;;15.90;99.90;;;;;;5057466;28;20203;-63
2023/06/15 03:02:30;;;;;;;1.10;1.10;;;15.80;99.90;;;;;;5059332;28;20239;-62
2023/06/15 03:04:57;;;;;;;1.30;1.30;;;15.80;99.90;;;;;;5059749;28;20204;-62
2023/06/15 03:07:25;;;;;;;1.30;1.23;;;15.90;99.90;;;;;;5061796;28;20278;-62
2023/06/15 03:09:53;;;;;;;1.30;1.15;;;15.80;99.90;;;;;;5058602;28;20210;-62
2023/06/15 03:12:20;;;;;;;1.30;1.20;;;15.80;99.90;;;;;;5056310;28;20725;-62
2023/06/15 03:14:50;;;;;;;1.20;1.10;;;15.80;99.90;;;;;;5056671;28;20299;-62
2023/06/15 03:17:17;;;;;;;1.20;1.20;;;15.80;99.90;;;;;;5055777;28;20278;-63
2023/06/15 03:19:46;;;;;;;1.30;1.20;;;15.80;99.90;;;;;;5055249;28;20227;-62
2023/06/15 03:22:13;;;;;;;1.30;1.30;;;15.80;99.90;;;;;;5055106;28;20231;-62
2023/06/15 03:24:41;;;;;;;1.10;1.10;;;15.90;99.90;;;;;;5054906;28;20215;-62
2023/06/15 03:27:11;;;;;;;1.00;1.00;;;15.90;99.90;;;;;;5054971;28;20576;-62
2023/06/15 03:29:39;;;;;;;1.20;1.20;;;15.80;99.90;;;;;;5053812;28;20584;-62
2023/06/15 03:32:07;;;;;;;1.25;1.25;;;15.80;99.90;;;;;;5054354;28;20226;-62
2023/06/15 03:34:35;;;;;;;1.05;1.05;;;15.80;99.90;;;;;;5054204;28;20325;-63
2023/06/15 03:37:02;;;;;;;1.40;1.30;;;15.80;99.90;;;;;;5058000;28;20231;-61
2023/06/15 03:39:29;;;;;;;1.42;1.33;;;15.90;99.90;;;;;;5056330;28;20739;-62
2023/06/15 03:41:56;;;;;;;1.20;1.20;;;15.90;99.90;;;;;;5053411;28;20231;-63
2023/06/15 03:44:24;;;;;;;1.25;1.23;;;15.90;99.90;;;;;;5045958;28;20849;-64
2023/06/15 03:46:51;;;;;;;1.27;1.23;;;15.90;99.90;;;;;;5034571;28;20212;-62
2023/06/15 03:49:18;;;;;;;1.20;1.20;;;15.90;99.90;;;;;;5033589;28;20308;-63
2023/06/15 03:51:45;;;;;;;1.48;1.38;;;15.90;99.90;;;;;;5033969;28;20315;-63
2023/06/15 03:54:12;;;;;;;1.48;1.38;;;15.90;99.90;;;;;;5033904;28;20266;-63
2023/06/15 03:56:39;;;;;;;1.30;1.20;;;15.90;99.90;;;;;;5034539;28;20219;-63
2023/06/15 03:59:06;;;;;;;1.20;1.20;;;15.90;99.90;;;;;;5034263;28;20232;-62
2023/06/15 04:01:35;;;;;;;1.35;1.25;;;15.90;99.90;;;;;;5033914;28;20711;-63
2023/06/15 04:04:02;;;;;;;1.45;1.35;;;15.90;99.90;;;;;;5034664;28;20735;-63
2023/06/15 04:06:29;;;;;;;1.40;1.30;;;15.90;99.90;;;;;;5034975;28;20217;-65
2023/06/15 04:08:56;;;;;;;1.10;1.10;;;16.00;99.90;;;;;;5043487;28;20208;-63
2023/06/15 04:11:23;;;;;;;1.20;1.20;;;16.20;99.90;;;;;;5047671;28;20243;-63
2023/06/15 04:13:50;;;;;;;1.30;1.30;;;16.40;99.90;;;;;;5039060;28;20208;-62
2023/06/15 04:16:17;;;;;;;1.38;1.33;;;16.80;99.90;;;;;;5037983;28;20236;-62
2023/06/15 04:18:45;;;;;;;1.10;1.10;;;17.10;99.90;;;;;;5044240;28;20219;-62
2023/06/15 04:21:12;;;;;;;1.48;1.40;;;17.30;99.90;;;;;;5068473;28;20231;-62
2023/06/15 04:23:39;;;;;;;1.45;1.40;;;17.40;99.90;;;;;;5063392;28;20203;-62
2023/06/15 04:26:06;;;;;;;1.20;1.20;;;17.40;99.90;;;;;;5062747;28;20292;-62
2023/06/15 04:28:35;;;;;;;1.50;1.40;;;17.10;99.90;;;;;;5071746;28;20255;-63
2023/06/15 04:31:10;;;;;;;1.85;1.55;;;16.80;99.90;;;;;;5067161;28;20195;-62
2023/06/15 04:33:41;;;;;;;1.20;1.20;;;16.90;99.90;;;;;;5065532;28;20230;-62
2023/06/15 04:36:12;;;;;;;1.20;1.20;;;17.00;99.90;;;;;;5053333;28;20200;-62
2023/06/15 04:38:40;;;;;;;1.25;1.23;;;17.20;99.90;;;;;;5053948;28;20220;-62
2023/06/15 04:41:08;;;;;;;2.90;1.40;;;17.30;99.90;;;;;;5053135;28;20271;-62
2023/06/15 04:43:36;;;;;;;1.40;1.30;;;17.50;99.90;;;;;;5052880;28;20208;-62
2023/06/15 04:46:03;;;;;;;1.40;1.30;;;17.50;99.90;;;;;;5053906;28;20211;-62
2023/06/15 04:48:32;;;;;;;1.40;1.30;;;17.60;99.90;;;;;;5054963;28;20554;-63
2023/06/15 04:50:59;;;;;;;1.92;1.40;;;17.70;99.90;;;;;;5054083;28;20579;-62
2023/06/15 04:53:27;;;;;;;1.88;1.40;;;17.70;99.90;;;;;;5054945;28;20204;-63
2023/06/15 04:55:54;;;;;;;1.67;1.55;;;17.70;99.90;;;;;;5054131;28;20215;-62
2023/06/15 04:58:21;;;;;;;1.48;1.20;;;17.70;99.90;;;;;;5053413;28;20568;-62
2023/06/15 05:00:48;;;;;;;1.73;1.63;;;17.70;99.90;;;;;;5060169;28;20230;-62
2023/06/15 05:03:14;;;;;;;1.20;1.20;;;17.70;99.90;;;;;;5056358;28;20752;-62
2023/06/15 05:05:41;;;;;;;1.20;1.20;;;17.70;99.90;;;;;;5053458;28;20210;-62
2023/06/15 05:08:08;;;;;;;1.70;1.35;;;17.80;99.90;;;;;;5053070;28;20204;-62
2023/06/15 05:10:36;;;;;;;1.45;1.25;;;17.80;99.90;;;;;;5052870;28;20701;-62
2023/06/15 05:13:03;;;;;;;1.60;1.50;;;17.80;99.90;;;;;;5052794;28;20232;-62
2023/06/15 05:15:30;;;;;;;2.50;1.40;;;17.90;99.90;;;;;;5052864;28;20207;-62
2023/06/15 05:17:57;;;;;;;1.13;1.13;;;17.80;99.90;;;;;;5053490;28;20211;-62
2023/06/15 05:20:24;;;;;;;1.10;1.10;;;17.70;99.90;;;;;;5052186;28;20629;-62
2023/06/15 05:22:51;;;;;;;1.63;1.30;;;17.60;99.90;;;;;;5052508;28;20227;-63
2023/06/15 05:25:18;;;;;;;1.48;1.38;;;17.80;99.90;;;;;;5053915;28;20211;-62
2023/06/15 05:27:47;;;;;;;1.42;1.33;;;17.80;99.90;;;;;;5054860;28;20207;-62
2023/06/15 05:30:15;;;;;;;1.67;1.58;;;17.90;99.90;;;;;;5053476;28;20284;-63
2023/06/15 05:32:42;;;;;;;1.65;1.55;;;18.00;99.90;;;;;;5051769;28;20228;-63
2023/06/15 05:35:09;;;;;;;1.73;1.63;;;18.10;99.90;;;;;;5059312;28;20310;-63
2023/06/15 05:37:37;;;;;;;1.80;1.70;;;18.30;99.90;;;;;;5056894;28;20208;-62
2023/06/15 05:40:05;;;;;;;1.65;1.55;;;18.20;99.90;;;;;;5058051;28;20216;-64
2023/06/15 05:42:32;;;;;;;1.48;1.40;;;18.50;99.90;;;;;;5061320;28;20242;-64
2023/06/15 05:45:00;;;;;;;1.60;1.50;;;18.40;99.90;;;;;;5054678;28;20203;-63
2023/06/15 05:47:27;;;;;;;1.40;1.40;;;18.40;99.90;;;;;;5063307;28;20298;-63
2023/06/15 05:49:54;;;;;;;1.48;1.48;;;18.20;99.90;;;;;;5060341;28;20285;-65
2023/06/15 05:52:21;;;;;;;1.80;1.70;;;18.20;99.90;;;;;;5066071;28;20219;-63
2023/06/15 05:54:49;;;;;;;1.88;1.70;;;18.30;99.90;;;;;;5054583;28;20204;-66
2023/06/15 05:57:16;;;;;;;1.80;1.70;;;18.40;99.90;;;;;;5060300;28;20227;-63
2023/06/15 05:59:46;;;;;;;1.70;1.60;;;18.40;99.90;;;;;;5029950;28;20228;-64
2023/06/15 06:02:14;;;;;;;1.80;1.70;;;18.60;99.90;;;;;;5031636;28;20282;-63
2023/06/15 06:04:41;;;;;;;3.03;1.92;;;18.70;99.90;;;;;;5031115;28;20201;-65
2023/06/15 06:07:10;;;;;;;2.03;1.83;;;18.90;99.90;;;;;;5032078;28;20742;-63
2023/06/15 06:09:37;;;;;;;2.33;1.45;;;19.00;99.90;;;;;;5030559;28;20663;-63
2023/06/15 06:12:05;;;;;;;2.00;1.80;;;19.20;99.90;;;;;;5036817;28;20769;-61
2023/06/15 06:14:32;;;;;;;1.90;1.80;;;19.40;99.90;;;;;;5035781;28;20247;-65
2023/06/15 06:16:59;;;;;;;1.77;1.67;;;19.40;99.90;;;;;;5033736;28;20268;-64
2023/06/15 06:19:27;;;;;;;3.30;1.85;;;19.40;99.90;;;;;;5032023;28;20220;-64
2023/06/15 06:21:54;;;;;;;1.63;1.52;;;19.50;99.90;;;;;;5030486;28;20233;-64
2023/06/15 06:24:21;;;;;;;1.80;1.70;;;19.60;99.90;;;;;;5031167;28;20208;-62
2023/06/15 06:26:47;;;;;;;1.60;1.50;;;19.50;99.90;;;;;;5031319;28;20216;-63
2023/06/15 06:29:14;;;;;;;2.28;1.63;;;19.60;99.90;;;;;;5031774;28;20203;-63
2023/06/15 06:31:42;;;;;;;1.60;1.50;;;19.70;99.90;;;;;;5031427;28;20323;-63
2023/06/15 06:34:09;;;;;;;2.13;2.03;;;19.90;99.90;;;;;;5031160;28;20705;-62
2023/06/15 06:36:38;;;;;;;1.60;1.50;;;20.00;99.90;;;;;;5031693;28;20687;-62
2023/06/15 06:39:04;;;;;;;1.58;1.48;;;20.00;99.90;;;;;;5031789;28;20324;-62
2023/06/15 06:41:31;;;;;;;1.40;1.30;;;20.10;99.90;;;;;;5031380;28;20290;-62
2023/06/15 06:43:58;;;;;;;1.80;1.70;;;20.20;99.90;;;;;;5031434;28;20216;-65
2023/06/15 06:46:25;;;;;;;1.70;1.60;;;20.60;99.90;;;;;;5034616;28;20261;-63
2023/06/15 06:48:52;;;;;;;1.80;1.70;;;20.50;99.90;;;;;;5070095;22;20231;-59
2023/06/15 06:51:19;;;;;;;1.80;1.70;;;20.40;99.90;;;;;;5067889;28;20207;-60
2023/06/15 06:53:47;;;;;;;1.70;1.40;;;20.40;99.90;;;;;;5070492;28;20265;-59
2023/06/15 06:56:14;;;;;;;1.70;1.60;;;20.50;99.90;;;;;;5070343;28;20283;-61
2023/06/15 06:58:41;;;;;;;1.48;1.38;;;20.60;99.90;;;;;;5069526;28;20230;-60
2023/06/15 07:01:08;;;;;;;1.30;1.30;;;20.60;99.90;;;;;;5069873;28;20298;-61
2023/06/15 07:03:35;;;;;;;1.45;1.40;;;20.80;99.90;;;;;;5070023;28;20204;-61
2023/06/15 07:06:02;;;;;;;2.35;1.92;;;20.90;99.90;;;;;;5073208;28;20214;-62
2023/06/15 07:08:29;;;;;;;1.50;1.40;;;20.90;99.90;;;;;;5073738;28;20226;-62
2023/06/15 07:10:57;;;;;;;1.40;1.30;;;20.70;99.90;;;;;;5074146;28;20590;-61
2023/06/15 07:13:24;;;;;;;1.75;1.65;;;20.60;99.90;;;;;;5073702;28;20207;-60
2023/06/15 07:15:54;;;;;;;1.50;1.40;;;20.80;99.90;;;;;;5074646;28;20289;-61
2023/06/15 07:18:21;;;;;;;1.40;1.30;;;20.90;99.90;;;;;;5074976;28;20280;-60
2023/06/15 07:20:53;;;;;;;1.48;1.38;;;21.00;99.90;;;;;;5074286;28;20243;-61
2023/06/15 07:23:20;;;;;;;1.60;1.50;;;21.20;99.90;;;;;;5073893;28;20211;-62
2023/06/15 07:25:47;;;;;;;2.13;1.60;;;21.30;99.90;;;;;;5073693;28;20207;-61
2023/06/15 07:28:15;;;;;;;1.55;1.45;;;21.40;99.90;;;;;;5073916;28;20219;-60
2023/06/15 07:30:43;;;;;;;1.60;1.50;;;21.60;99.90;;;;;;5073210;28;20202;-60
2023/06/15 07:33:10;;;;;;;1.50;1.40;;;21.70;99.90;;;;;;5073990;28;20203;-60
2023/06/15 07:35:37;;;;;;;1.48;1.38;;;21.70;99.90;;;;;;5074124;28;20271;-60
2023/06/15 07:38:04;;;;;;;1.73;1.58;;;21.80;99.90;;;;;;5074083;28;20302;-60
2023/06/15 07:40:31;;;;;;;1.70;1.60;;;22.00;99.90;;;;;;5073942;28;20226;-60
2023/06/15 07:42:58;;;;;;;1.70;1.60;;;22.00;99.90;;;;;;5073865;28;20568;-61
2023/06/15 07:45:26;;;;;;;2.00;1.90;;;22.00;99.90;;;;;;5072845;28;20203;-60
2023/06/15 07:47:56;;;;;;;1.70;1.60;;;22.10;99.90;;;;;;5073495;28;20203;-60
2023/06/15 07:50:22;;;;;;;1.58;1.48;;;22.00;99.90;;;;;;5073046;28;20203;-61
2023/06/15 07:52:51;;;;;;;1.38;1.30;;;22.00;99.90;;;;;;5072965;28;20276;-62
2023/06/15 07:55:18;;;;;;;1.40;1.30;;;22.30;99.90;;;;;;5073193;28;20207;-60
2023/06/15 07:57:45;;;;;;;1.33;1.23;;;22.50;99.90;;;;;;5073417;28;20394;-61
2023/06/15 08:00:13;;;;;;;1.27;1.27;;;22.60;99.90;;;;;;5072709;28;20238;-61
2023/06/15 08:02:41;;;;;;;1.48;1.40;;;22.70;99.90;;;;;;5073360;28;20210;-61
2023/06/15 08:05:08;;;;;;;1.50;1.40;;;22.70;99.90;;;;;;5073637;28;20199;-61
2023/06/15 08:07:36;;;;;;;1.65;1.40;;;22.80;99.90;;;;;;5073528;28;20323;-60
2023/06/15 08:10:03;;;;;;;1.40;1.40;;;22.90;99.90;;;;;;5073044;28;20245;-60
2023/06/15 08:12:30;;;;;;;1.25;1.25;;;22.90;99.90;;;;;;5072448;28;20207;-61
2023/06/15 08:14:57;;;;;;;1.20;1.20;;;22.90;99.90;;;;;;5073023;28;20217;-61
2023/06/15 08:17:25;;;;;;;1.35;1.30;;;23.00;99.90;;;;;;5072668;28;20207;-60
2023/06/15 08:19:53;;;;;;;1.73;1.35;;;23.00;99.90;;;;;;5072582;28;20231;-61
2023/06/15 08:22:20;;;;;;;1.10;1.10;;;23.00;99.90;;;;;;5072994;28;20345;-61
2023/06/15 08:24:46;;;;;;;1.30;1.20;;;22.80;99.90;;;;;;5074134;28;20247;-60
2023/06/15 08:27:14;;;;;;;1.30;1.30;;;22.80;99.90;;;;;;5077082;28;20271;-60
2023/06/15 08:29:44;;;;;;;1.23;1.10;;;23.00;99.90;;;;;;5075276;28;20760;-60
2023/06/15 08:32:13;;;;;;;1.00;1.00;;;23.10;99.90;;;;;;5077348;28;20286;-61
2023/06/15 08:34:41;;;;;;;1.30;1.30;;;23.10;99.90;;;;;;5076124;28;20206;-61
2023/06/15 08:37:11;;;;;;;1.40;1.30;;;23.20;99.90;;;;;;5073259;28;20207;-61
2023/06/15 08:39:38;;;;;;;1.42;1.42;;;23.40;99.90;;;;;;5074208;28;20605;-60
2023/06/15 08:42:05;;;;;;;1.20;1.20;;;23.30;99.90;;;;;;5074343;28;20276;-62
2023/06/15 08:44:33;;;;;;;1.20;1.20;;;23.10;99.90;;;;;;5072489;28;20209;-62
2023/06/15 08:47:01;;;;;;;1.30;1.30;;;23.30;99.90;;;;;;5072096;28;20234;-61
2023/06/15 08:49:30;;;;;;;1.60;1.50;;;23.60;99.90;;;;;;5071792;28;20237;-61
2023/06/15 08:51:58;;;;;;;1.50;1.40;;;23.70;99.90;;;;;;5071981;28;20321;-60
2023/06/15 08:54:28;;;;;;;1.70;1.45;;;23.90;99.90;;;;;;5072056;28;20210;-61
2023/06/15 08:56:56;;;;;;;1.45;1.35;;;23.90;99.90;;;;;;5071820;28;20204;-61
2023/06/15 08:59:23;;;;;;;2.70;1.38;;;23.60;99.90;;;;;;5071214;28;20232;-61
2023/06/15 09:01:54;;;;;;;1.40;1.40;;;23.50;99.90;;;;;;5084647;28;20199;-62
2023/06/15 09:04:21;;;;;;;1.20;1.20;;;23.40;99.90;;;;;;5092322;28;20217;-61
2023/06/15 09:06:49;;;;;;;2.88;2.75;;;23.30;99.90;;;;;;5092937;28;20314;-61
2023/06/15 09:09:16;;;;;;;1.52;1.40;;;23.50;99.90;;;;;;5075401;28;20223;-60
2023/06/15 09:11:45;;;;;;;1.50;1.40;;;23.70;99.90;;;;;;5071286;28;20223;-61
2023/06/15 09:14:12;;;;;;;1.33;1.30;;;24.00;99.90;;;;;;5072135;28;20214;-62
2023/06/15 09:16:40;;;;;;;1.23;1.13;;;24.20;99.90;;;;;;5071849;28;20217;-62
2023/06/15 09:19:11;;;;;;;1.40;1.30;;;24.30;99.90;;;;;;5071907;28;20242;-61
2023/06/15 09:21:43;;;;;;;2.17;1.48;;;24.50;99.90;;;;;;5071502;28;20845;-60
2023/06/15 09:24:10;;;;;;;1.20;1.20;;;24.50;99.90;;;;;;5071938;28;20203;-60
2023/06/15 09:26:40;;;;;;;2.67;1.50;;;24.60;99.90;;;;;;5071263;28;20295;-62
2023/06/15 09:29:11;;;;;;;1.30;1.30;;;24.80;99.90;;;;;;5070394;28;20735;-61
2023/06/15 09:31:40;;;;;;;1.35;1.30;;;24.90;99.90;;;;;;5071306;28;20199;-60
2023/06/15 09:34:08;;;;;;;1.17;1.17;;;25.00;99.90;;;;;;5071269;28;20773;-60
2023/06/15 09:36:38;;;;;;;1.55;1.30;;;25.10;99.90;;;;;;5071650;28;20199;-60
2023/06/15 09:39:05;;;;;;;1.55;1.45;;;25.00;99.90;;;;;;5071105;28;20386;-61
2023/06/15 09:41:33;;;;;;;1.10;1.10;;;25.10;99.90;;;;;;5071992;28;20233;-59
2023/06/15 09:44:03;;;;;;;1.83;1.30;;;25.30;99.90;;;;;;5072118;28;20221;-60
2023/06/15 09:46:31;;;;;;;1.33;1.30;;;25.30;99.90;;;;;;5071534;28;20211;-61
2023/06/15 09:48:58;;;;;;;2.05;1.50;;;25.20;99.90;;;;;;5070668;28;20775;-60
2023/06/15 09:51:28;;;;;;;2.13;1.30;;;25.30;99.90;;;;;;5071228;28;20695;-63
2023/06/15 09:53:57;;;;;;;1.20;1.20;;;25.50;99.90;;;;;;5072531;28;20211;-61
2023/06/15 09:56:24;;;;;;;1.55;1.45;;;25.80;99.90;;;;;;5079399;28;20230;-60
2023/06/15 09:58:50;;;;;;;1.20;1.20;;;25.80;99.90;;;;;;5082780;28;20314;-61
2023/06/15 10:01:19;;;;;;;1.42;1.42;;;25.90;99.90;;;;;;5081530;28;20290;-61
2023/06/15 10:03:53;;;;;;;1.30;1.20;;;26.00;99.90;;;;;;5084700;28;20294;-61
2023/06/15 10:06:22;;;;;;;1.60;1.17;;;26.00;99.90;;;;;;5080545;28;20622;-62
2023/06/15 10:08:54;;;;;;;1.10;1.10;;;26.00;99.90;;;;;;5072240;28;20219;-63
2023/06/15 10:11:22;;;;;;;3.90;2.08;;;26.10;99.90;;;;;;5071485;28;20230;-62
2023/06/15 10:13:52;;;;;;;1.30;1.20;;;26.20;99.90;;;;;;5071950;28;20290;-61
2023/06/15 10:16:20;;;;;;;1.23;1.23;;;26.30;99.90;;;;;;5072025;28;20203;-61
2023/06/15 10:18:57;;;;;;;1.20;1.20;;;26.40;99.90;;;;;;5071906;28;20225;-61
2023/06/15 10:21:28;;;;;;;1.00;1.00;;;26.50;99.90;;;;;;5071675;28;20219;-60
2023/06/15 10:23:59;;;;;;;1.35;1.10;;;26.60;99.90;;;;;;5072272;28;20207;-60
2023/06/15 10:26:26;;;;;;;1.30;1.20;;;26.70;99.90;;;;;;5071042;28;20203;-63
2023/06/15 10:28:59;;;;;;;1.30;1.30;;;26.70;99.90;;;;;;5070404;28;20223;-61
2023/06/15 10:31:32;;;;;;;1.92;1.30;;;27.00;99.90;;;;;;5070595;28;20218;-61
2023/06/15 10:34:05;;;;;;;1.40;1.30;;;26.90;99.90;;;;;;5070609;28;20207;-60
2023/06/15 10:36:42;;;;;;;1.23;1.20;;;27.00;99.90;;;;;;5071293;28;20199;-61
2023/06/15 10:39:17;;;;;;;1.25;1.25;;;27.20;99.90;;;;;;5072064;28;20223;-60
2023/06/15 10:41:45;;;;;;;1.25;1.25;;;27.30;99.90;;;;;;5080646;28;20318;-63
2023/06/15 10:44:16;;;;;;;1.30;1.20;;;27.50;99.90;;;;;;5074493;28;20762;-61
2023/06/15 10:46:43;;;;;;;1.33;1.23;;;27.50;99.90;;;;;;5074398;28;20576;-60
2023/06/15 10:49:12;;;;;;;0.98;0.98;;;27.50;99.90;;;;;;5074064;28;20338;-61
2023/06/15 10:51:42;;;;;;;1.38;1.20;;;27.70;99.90;;;;;;5074625;28;20344;-61
2023/06/15 10:54:22;;;;;;;1.15;1.15;;;27.80;99.90;;;;;;5074905;28;20623;-61
2023/06/15 10:56:51;;;;;;;1.20;1.20;;;27.90;99.90;;;;;;5074331;28;20610;-61
2023/06/15 10:59:37;;;;;;;2.17;1.30;;;27.60;99.90;;;;;;5073842;28;20851;-62
2023/06/15 11:02:43;;;;;;;1.30;1.20;;;27.60;99.90;;;;;;5074333;28;20235;-61
2023/06/15 11:05:12;;;;;;;1.10;1.10;;;27.20;99.90;;;;;;5077474;28;20221;-60
2023/06/15 11:07:41;;;;;;;1.48;1.08;;;26.90;99.90;;;;;;5077814;28;20202;-60
2023/06/15 11:10:13;;;;;;;1.88;1.20;;;26.70;99.90;;;;;;5075422;28;20579;-64
2023/06/15 11:12:42;;;;;;;1.42;1.33;;;26.70;99.90;;;;;;5074487;28;20229;-64
2023/06/15 11:15:11;;;;;;;1.73;1.50;;;26.50;99.90;;;;;;5074538;28;20715;-62
2023/06/15 11:17:54;;;;;;;1.30;1.20;;;26.40;99.90;;;;;;5073677;28;20207;-64
2023/06/15 11:20:43;;;;;;;1.05;1.05;;;26.40;99.90;;;;;;5073320;28;20288;-63
2023/06/15 11:23:11;;;;;;;1.10;1.10;;;26.60;99.90;;;;;;5074214;28;20582;-64
2023/06/15 11:25:39;;;;;;;1.50;1.40;;;26.90;99.90;;;;;;5077191;28;20738;-66
2023/06/15 11:28:07;;;;;;;1.15;1.15;;;26.90;99.90;;;;;;5077284;28;20203;-63
2023/06/15 11:30:34;;;;;;;1.10;1.10;;;26.80;99.90;;;;;;5094610;28;20263;-63
2023/06/15 11:33:01;;;;;;;2.25;1.13;;;26.80;99.90;;;;;;5089127;28;20633;-63
2023/06/15 11:35:30;;;;;;;1.27;1.20;;;26.60;99.90;;;;;;5073447;28;20294;-63
2023/06/15 11:37:58;;;;;;;1.20;1.20;;;26.40;99.90;;;;;;5073051;28;20203;-65
2023/06/15 11:40:25;;;;;;;1.10;1.10;;;26.50;99.90;;;;;;5072872;28;20318;-63
2023/06/15 11:42:54;;;;;;;1.13;1.13;;;26.40;99.90;;;;;;5073486;28;20206;-64
2023/06/15 11:45:23;;;;;;;1.83;1.30;;;26.60;99.90;;;;;;5073643;28;20205;-65
2023/06/15 11:47:50;;;;;;;1.02;1.02;;;26.70;99.60;;;;;;5078376;28;20203;-63
2023/06/15 11:50:17;;;;;;;1.20;1.20;;;26.80;99.90;;;;;;5079551;28;20295;-63
2023/06/15 11:52:45;;;;;;;1.10;1.10;;;26.80;99.50;;;;;;5079695;28;20245;-64
2023/06/15 11:55:16;;;;;;;1.10;1.10;;;26.60;99.70;;;;;;5080275;28;20230;-65
2023/06/15 11:57:43;;;;;;;1.92;1.33;;;26.50;99.90;;;;;;5076444;28;20246;-63
2023/06/15 12:00:12;;;;;;;1.05;1.05;;;26.60;99.90;;;;;;5073545;28;20263;-63
2023/06/15 12:02:41;;;;;;;1.17;1.10;;;26.40;99.90;;;;;;5073153;28;20210;-63
2023/06/15 12:05:10;;;;;;;1.20;1.20;;;26.40;99.90;;;;;;5073052;28;20207;-63
2023/06/15 12:07:38;;;;;;;1.02;1.02;;;26.40;99.90;;;;;;5078375;28;20203;-64
2023/06/15 12:10:07;;;;;;;1.10;1.10;;;26.40;99.90;;;;;;5073381;28;20237;-63
2023/06/15 12:12:36;;;;;;;1.15;1.15;;;26.40;99.70;;;;;;5073173;28;20615;-65
2023/06/15 12:15:05;;;;;;;1.40;1.30;;;26.30;99.80;;;;;;5077024;28;20683;-62
2023/06/15 12:17:34;;;;;;;1.13;1.10;;;26.30;99.60;;;;;;5075941;28;20277;-63
2023/06/15 12:20:03;;;;;;;1.13;1.13;;;26.20;99.90;;;;;;5072644;28;20263;-64
2023/06/15 12:22:35;;;;;;;1.00;1.00;;;26.30;99.90;;;;;;5077271;28;20697;-64
2023/06/15 12:25:03;;;;;;;1.10;1.10;;;26.30;99.30;;;;;;5072720;28;20665;-63
2023/06/15 12:27:31;;;;;;;1.25;1.15;;;26.30;99.60;;;;;;5072623;28;20219;-62
2023/06/15 12:30:08;;;;;;;1.20;1.10;;;26.30;99.80;;;;;;5072584;28;20227;-62
2023/06/15 12:32:36;;;;;;;1.20;1.20;;;26.40;99.90;;;;;;5073181;28;20213;-62
2023/06/15 12:35:03;;;;;;;1.20;1.10;;;26.60;99.40;;;;;;5072818;28;20207;-62
2023/06/15 12:37:30;;;;;;;1.10;1.10;;;26.70;99.50;;;;;;5073125;28;20207;-63
2023/06/15 12:39:57;;;;;;;1.10;1.10;;;26.80;99.80;;;;;;5074125;28;20276;-65
2023/06/15 12:42:24;;;;;;;1.00;1.00;;;26.80;98.80;;;;;;5074235;28;20544;-63
2023/06/15 12:44:51;;;;;;;1.00;1.00;;;27.10;98.60;;;;;;5073796;28;20199;-63
2023/06/15 12:47:19;;;;;;;1.10;1.10;;;27.50;98.60;;;;;;5072918;28;20286;-62
2023/06/15 12:49:46;;;;;;;1.00;1.00;;;27.70;98.40;;;;;;5097646;22;20700;-65
2023/06/15 12:52:14;;;;;;;1.00;1.00;;;28.00;98.50;;;;;;5090963;28;20262;-66
2023/06/15 12:54:41;;;;;;;1.10;1.10;;;28.10;97.60;;;;;;5092864;28;20202;-66